createdAt,value
2023-01-13T00:00:31.430Z,66.24
2023-01-13T00:02:59.524Z,65.63
2023-01-13T00:05:28.334Z,64.36
2023-01-13T00:07:56.294Z,63.40
2023-01-13T00:10:24.241Z,64.11
2023-01-13T00:12:53.711Z,64.86
2023-01-13T00:15:23.042Z,64.85
2023-01-13T00:17:51.205Z,65.40
2023-01-13T00:20:19.318Z,67.15
2023-01-13T00:22:47.294Z,67.39
2023-01-13T00:25:15.478Z,67.43
2023-01-13T00:27:43.650Z,67.08
2023-01-13T00:30:14.459Z,67.15
2023-01-13T00:32:42.514Z,66.56
2023-01-13T00:35:10.797Z,66.51
2023-01-13T00:37:39.450Z,66.51
2023-01-13T00:40:08.763Z,66.21
2023-01-13T00:42:54.055Z,65.94
2023-01-13T00:45:23.416Z,66.54
2023-01-13T00:47:51.900Z,66.66
2023-01-13T00:50:20.106Z,66.23
2023-01-13T00:52:48.125Z,66.56
2023-01-13T00:55:16.661Z,66.62
2023-01-13T00:57:44.605Z,67.65
2023-01-13T01:00:13.751Z,67.30
2023-01-13T01:02:43.082Z,67.69
2023-01-13T01:05:11.757Z,67.40
2023-01-13T01:07:40.037Z,66.73
2023-01-13T01:10:08.942Z,66.46
2023-01-13T01:12:36.947Z,65.74
2023-01-13T01:15:09.277Z,65.42
2023-01-13T01:17:37.729Z,65.11
2023-01-13T01:20:08.262Z,65.17
2023-01-13T01:22:36.219Z,64.68
2023-01-13T01:25:04.462Z,64.39
2023-01-13T01:27:32.517Z,63.83
2023-01-13T01:30:00.617Z,64.23
2023-01-13T01:32:29.904Z,65.27
2023-01-13T01:34:57.842Z,65.24
2023-01-13T01:37:27.267Z,66.17
2023-01-13T01:39:55.196Z,65.93
2023-01-13T01:42:41.195Z,66.09
2023-01-13T01:45:18.708Z,66.19
2023-01-13T01:47:49.380Z,66.78
2023-01-13T01:50:19.720Z,66.54
2023-01-13T01:52:53.989Z,66.58
2023-01-13T01:55:25.322Z,66.66
2023-01-13T01:57:57.341Z,66.19
2023-01-13T02:00:28.512Z,65.85
2023-01-13T02:02:58.240Z,65.76
2023-01-13T02:05:26.717Z,65.13
2023-01-13T02:07:59.090Z,65.21
2023-01-13T02:10:29.615Z,65.75
2023-01-13T02:13:01.721Z,66.08
2023-01-13T02:15:37.289Z,65.82
2023-01-13T02:18:22.549Z,65.83
2023-01-13T02:21:13.635Z,65.48
2023-01-13T02:24:52.199Z,65.22
2023-01-13T02:27:45.235Z,66.29
2023-01-13T02:30:41.473Z,65.67
2023-01-13T02:33:26.187Z,66.65
2023-01-13T02:36:02.110Z,66.81
2023-01-13T02:38:34.260Z,67.06
2023-01-13T02:41:20.439Z,67.21
2023-01-13T02:44:10.541Z,67.86
2023-01-13T02:46:49.065Z,67.10
2023-01-13T02:49:24.616Z,67.95
2023-01-13T02:51:56.116Z,67.59
2023-01-13T02:54:29.451Z,67.67
2023-01-13T02:56:58.960Z,67.65
2023-01-13T02:59:29.174Z,67.97
2023-01-13T03:02:00.502Z,68.00
2023-01-13T03:04:59.698Z,67.91
2023-01-13T03:07:55.767Z,68.14
2023-01-13T03:10:47.686Z,67.89
2023-01-13T03:13:27.213Z,68.04
2023-01-13T03:16:06.602Z,68.59
2023-01-13T03:18:45.828Z,68.12
2023-01-13T03:21:22.194Z,67.56
2023-01-13T03:23:52.786Z,67.44
2023-01-13T03:26:27.907Z,67.58
2023-01-13T03:29:03.335Z,66.90
2023-01-13T03:31:34.309Z,67.68
2023-01-13T03:34:11.047Z,68.51
2023-01-13T03:36:42.120Z,68.07
2023-01-13T03:39:13.550Z,67.95
2023-01-13T03:41:45.489Z,68.06
2023-01-13T03:44:23.129Z,67.57
2023-01-13T03:47:00.402Z,67.77
2023-01-13T03:49:37.397Z,68.09
2023-01-13T03:52:10.977Z,68.63
2023-01-13T03:54:44.348Z,68.85
2023-01-13T03:57:17.100Z,67.96
2023-01-13T03:59:50.131Z,67.93
2023-01-13T04:02:26.729Z,67.58
2023-01-13T04:04:59.174Z,67.49
2023-01-13T04:07:38.265Z,67.10
2023-01-13T04:10:08.910Z,66.97
2023-01-13T04:12:59.057Z,67.39
2023-01-13T04:15:29.639Z,67.39
2023-01-13T04:18:04.052Z,67.49
2023-01-13T04:20:33.483Z,67.86
2023-01-13T04:23:01.552Z,67.93
2023-01-13T04:25:29.439Z,67.83
2023-01-13T04:27:57.303Z,67.64
2023-01-13T04:30:25.559Z,68.99
2023-01-13T04:32:53.419Z,69.11
2023-01-13T04:35:21.367Z,69.66
2023-01-13T04:37:50.885Z,69.22
2023-01-13T04:40:19.114Z,68.83
2023-01-13T04:42:47.349Z,69.67
2023-01-13T04:45:15.927Z,69.45
2023-01-13T04:47:43.841Z,69.20
2023-01-13T04:50:12.988Z,68.45
2023-01-13T04:52:41.167Z,67.73
2023-01-13T04:55:11.852Z,68.10
2023-01-13T04:57:39.814Z,67.85
2023-01-13T05:00:10.703Z,67.76
2023-01-13T05:02:38.974Z,67.53
2023-01-13T05:05:08.686Z,66.73
2023-01-13T05:07:36.897Z,67.04
2023-01-13T05:10:05.506Z,66.84
2023-01-13T05:12:52.464Z,66.20
2023-01-13T05:15:38.310Z,66.32
2023-01-13T05:18:06.917Z,66.09
2023-01-13T05:20:35.579Z,66.33
2023-01-13T05:23:20.787Z,66.20
2023-01-13T05:25:50.174Z,65.80
2023-01-13T05:28:19.621Z,65.74
2023-01-13T05:30:49.588Z,65.53
2023-01-13T05:33:20.315Z,64.79
2023-01-13T05:35:48.957Z,64.80
2023-01-13T05:38:18.083Z,64.25
2023-01-13T05:41:03.562Z,64.81
2023-01-13T05:43:34.742Z,64.23
2023-01-13T05:46:04.392Z,64.42
2023-01-13T05:48:34.493Z,63.32
2023-01-13T05:51:03.840Z,63.87
2023-01-13T05:53:32.666Z,63.53
2023-01-13T05:56:00.860Z,63.67
2023-01-13T05:58:29.357Z,63.81
2023-01-13T06:01:04.224Z,64.39
2023-01-13T06:03:32.756Z,64.40
2023-01-13T06:06:02.573Z,64.04
2023-01-13T06:08:31.866Z,63.69
2023-01-13T06:11:00.096Z,64.42
2023-01-13T06:13:28.151Z,64.93
2023-01-13T06:15:59.280Z,65.71
2023-01-13T06:18:29.653Z,65.99
2023-01-13T06:20:57.863Z,66.78
2023-01-13T06:23:25.971Z,66.54
2023-01-13T06:26:01.841Z,65.83
2023-01-13T06:28:30.589Z,66.37
2023-01-13T06:31:02.364Z,65.94
2023-01-13T06:33:36.531Z,65.83
2023-01-13T06:36:11.275Z,65.51
2023-01-13T06:38:45.279Z,65.38
2023-01-13T06:41:13.299Z,66.16
2023-01-13T06:43:40.624Z,67.73
2023-01-13T06:46:09.045Z,68.76
2023-01-13T06:48:38.395Z,69.94
2023-01-13T06:51:06.958Z,70.24
2023-01-13T06:53:35.036Z,71.09
2023-01-13T06:56:03.611Z,71.62
2023-01-13T06:58:31.959Z,71.80
2023-01-13T07:01:01.881Z,72.33
2023-01-13T07:03:30.278Z,72.06
2023-01-13T07:06:00.486Z,71.64
2023-01-13T07:08:29.085Z,72.64
2023-01-13T07:10:57.220Z,73.42
2023-01-13T07:13:43.074Z,73.50
2023-01-13T07:16:11.080Z,74.38
2023-01-13T07:18:40.221Z,74.13
2023-01-13T07:21:12.448Z,74.52
2023-01-13T07:23:42.293Z,75.08
2023-01-13T07:26:11.351Z,75.44
2023-01-13T07:28:39.950Z,75.00
2023-01-13T07:31:15.040Z,76.12
2023-01-13T07:33:42.987Z,76.26
2023-01-13T07:36:12.908Z,76.48
2023-01-13T07:38:41.534Z,76.01
2023-01-13T07:41:32.079Z,76.25
2023-01-13T07:44:05.051Z,76.15
2023-01-13T07:46:33.160Z,76.15
2023-01-13T07:49:01.120Z,75.52
2023-01-13T07:51:31.132Z,75.67
2023-01-13T07:53:59.385Z,75.32
2023-01-13T07:56:27.309Z,75.58
2023-01-13T07:58:55.550Z,75.60
2023-01-13T08:01:23.763Z,75.13
2023-01-13T08:03:51.760Z,75.71
2023-01-13T08:06:19.841Z,74.98
2023-01-13T08:08:49.254Z,75.13
2023-01-13T08:11:17.540Z,74.86
2023-01-13T08:13:45.918Z,75.02
2023-01-13T08:16:16.410Z,74.51
2023-01-13T08:18:44.631Z,73.68
2023-01-13T08:21:14.747Z,73.18
2023-01-13T08:23:44.620Z,72.97
2023-01-13T08:26:15.961Z,73.04
2023-01-13T08:28:44.081Z,72.62
2023-01-13T08:31:13.819Z,72.58
2023-01-13T08:33:42.249Z,72.59
2023-01-13T08:36:13.071Z,71.96
2023-01-13T08:38:43.500Z,71.50
2023-01-13T08:41:14.249Z,72.06
2023-01-13T08:43:42.175Z,72.50
2023-01-13T08:46:10.190Z,71.78
2023-01-13T08:48:38.240Z,71.30
2023-01-13T08:51:08.781Z,71.20
2023-01-13T08:53:37.088Z,71.42
2023-01-13T08:56:10.844Z,72.19
2023-01-13T08:58:41.060Z,72.23
2023-01-13T09:01:10.173Z,73.02
2023-01-13T09:03:39.098Z,73.24
2023-01-13T09:06:07.515Z,73.38
2023-01-13T09:08:35.733Z,73.46
2023-01-13T09:11:24.149Z,73.94
2023-01-13T09:13:53.166Z,75.71
2023-01-13T09:16:21.364Z,75.86
2023-01-13T09:18:49.559Z,75.80
2023-01-13T09:21:19.724Z,75.37
2023-01-13T09:23:48.205Z,75.70
2023-01-13T09:26:20.479Z,75.00
2023-01-13T09:28:48.760Z,74.77
2023-01-13T09:31:18.185Z,75.66
2023-01-13T09:34:04.776Z,76.69
2023-01-13T09:36:32.896Z,76.52
2023-01-13T09:39:00.817Z,76.82
2023-01-13T09:41:49.854Z,77.52
2023-01-13T09:44:23.387Z,78.43
2023-01-13T09:46:58.921Z,78.01
2023-01-13T09:49:34.828Z,77.95
2023-01-13T09:52:07.012Z,77.98
2023-01-13T09:54:42.150Z,77.85
2023-01-13T09:57:12.493Z,78.71
2023-01-13T09:59:40.652Z,79.45
2023-01-13T10:02:27.965Z,79.29
2023-01-13T10:05:08.540Z,79.43
2023-01-13T10:07:42.902Z,80.33
2023-01-13T10:10:18.320Z,80.55
2023-01-13T10:13:07.690Z,80.22
2023-01-13T10:15:37.351Z,80.37
2023-01-13T10:18:16.766Z,80.22
2023-01-13T10:20:58.295Z,79.98
2023-01-13T10:23:57.765Z,79.88
2023-01-13T10:26:45.064Z,79.98
2023-01-13T10:29:25.273Z,80.21
2023-01-13T10:31:54.363Z,79.23
2023-01-13T10:34:25.321Z,79.29
2023-01-13T10:37:03.441Z,78.71
2023-01-13T10:39:41.838Z,78.92
2023-01-13T10:42:15.988Z,78.85
2023-01-13T10:44:50.386Z,78.51
2023-01-13T10:47:24.142Z,78.46
2023-01-13T10:50:18.758Z,78.33
2023-01-13T10:52:59.343Z,78.79
2023-01-13T10:55:32.216Z,78.63
2023-01-13T10:58:13.139Z,78.04
2023-01-13T11:00:41.465Z,77.46
2023-01-13T11:03:18.765Z,77.79
2023-01-13T11:05:54.445Z,77.19
2023-01-13T11:08:25.620Z,77.65
2023-01-13T11:10:56.007Z,77.75
2023-01-13T11:13:31.761Z,77.63
2023-01-13T11:16:05.082Z,77.03
2023-01-13T11:18:43.802Z,76.83
2023-01-13T11:21:22.539Z,76.67
2023-01-13T11:24:03.190Z,76.57
2023-01-13T11:26:42.114Z,76.67
2023-01-13T11:29:15.984Z,76.24
2023-01-13T11:31:49.644Z,76.41
2023-01-13T11:34:30.067Z,76.40
2023-01-13T11:37:01.720Z,76.45
2023-01-13T11:39:45.655Z,75.52
2023-01-13T11:42:22.444Z,75.71
2023-01-13T11:44:56.883Z,75.90
2023-01-13T11:47:27.331Z,75.09
2023-01-13T11:49:55.980Z,74.53
2023-01-13T11:52:34.375Z,73.98
2023-01-13T11:55:15.969Z,73.32
2023-01-13T11:58:12.392Z,73.22
2023-01-13T12:01:17.609Z,73.95
2023-01-13T12:03:51.437Z,73.88
2023-01-13T12:06:25.931Z,73.86
2023-01-13T12:09:21.296Z,73.40
2023-01-13T12:12:23.049Z,73.65
2023-01-13T12:15:08.936Z,73.67
2023-01-13T12:17:47.455Z,73.76
2023-01-13T12:20:27.956Z,73.77
2023-01-13T12:23:02.465Z,73.43
2023-01-13T12:25:39.519Z,72.92
2023-01-13T12:28:15.465Z,72.35
2023-01-13T12:30:50.798Z,71.86
2023-01-13T12:33:29.684Z,71.50
2023-01-13T12:36:07.236Z,72.29
2023-01-13T12:38:41.226Z,71.95
2023-01-13T12:41:23.429Z,71.20
2023-01-13T12:44:11.194Z,71.43
2023-01-13T12:46:47.358Z,71.22
2023-01-13T12:49:30.574Z,70.88
2023-01-13T12:52:18.475Z,70.90
2023-01-13T12:55:05.349Z,70.26
2023-01-13T12:57:37.294Z,69.95
2023-01-13T13:00:18.872Z,69.74
2023-01-13T13:03:20.564Z,70.27
2023-01-13T13:06:08.783Z,69.75
2023-01-13T13:08:47.511Z,69.72
2023-01-13T13:11:58.109Z,70.22
2023-01-13T13:15:04.480Z,70.50
2023-01-13T13:18:01.120Z,70.76
2023-01-13T13:21:05.783Z,71.49
2023-01-13T13:23:49.076Z,71.80
2023-01-13T13:26:25.034Z,72.07
2023-01-13T13:29:07.024Z,72.06
2023-01-13T13:31:56.155Z,71.78
2023-01-13T13:34:31.400Z,71.37
2023-01-13T13:37:28.346Z,71.52
2023-01-13T13:40:14.271Z,71.92
2023-01-13T13:43:02.702Z,72.64
2023-01-13T13:45:49.384Z,73.75
2023-01-13T13:48:25.864Z,73.38
2023-01-13T13:50:58.261Z,73.67
2023-01-13T13:53:29.670Z,73.87
2023-01-13T13:56:00.778Z,73.47
2023-01-13T13:58:31.927Z,72.83
2023-01-13T14:01:01.624Z,72.14
2023-01-13T14:03:33.736Z,71.63
2023-01-13T14:06:04.151Z,71.75
2023-01-13T14:08:35.617Z,71.86
2023-01-13T14:11:17.609Z,71.52
2023-01-13T14:13:45.737Z,71.99
2023-01-13T14:16:16.221Z,72.51
2023-01-13T14:18:47.447Z,72.26
2023-01-13T14:21:21.422Z,72.12
2023-01-13T14:23:53.090Z,72.66
2023-01-13T14:26:25.856Z,71.89
2023-01-13T14:28:54.695Z,72.79
2023-01-13T14:31:24.095Z,73.93
2023-01-13T14:33:57.515Z,74.43
2023-01-13T14:36:35.840Z,74.53
2023-01-13T14:39:26.629Z,75.20
2023-01-13T14:41:55.016Z,75.27
2023-01-13T14:44:26.963Z,75.35
2023-01-13T14:46:57.200Z,75.55
2023-01-13T14:49:32.264Z,75.23
2023-01-13T14:52:13.808Z,75.02
2023-01-13T14:54:50.363Z,74.34
2023-01-13T14:57:28.590Z,74.02
2023-01-13T15:00:08.345Z,74.20
2023-01-13T15:02:44.379Z,73.63
2023-01-13T15:05:33.498Z,72.60
2023-01-13T15:08:06.171Z,72.22
2023-01-13T15:10:38.302Z,71.45
2023-01-13T15:13:07.710Z,71.24
2023-01-13T15:15:39.356Z,70.70
2023-01-13T15:18:14.143Z,70.62
2023-01-13T15:20:44.237Z,69.88
2023-01-13T15:23:12.478Z,71.38
2023-01-13T15:25:42.808Z,71.98
2023-01-13T15:28:18.657Z,72.83
2023-01-13T15:30:47.847Z,72.38
2023-01-13T15:33:17.312Z,72.01
2023-01-13T15:35:49.646Z,72.57
2023-01-13T15:38:20.477Z,72.59
2023-01-13T15:40:49.996Z,72.75
2023-01-13T15:43:37.436Z,73.41
2023-01-13T15:46:29.155Z,74.04
2023-01-13T15:48:57.708Z,73.40
2023-01-13T15:51:28.379Z,71.99
2023-01-13T15:54:00.910Z,71.48
2023-01-13T15:56:29.705Z,71.38
2023-01-13T15:58:58.381Z,71.85
2023-01-13T16:01:26.396Z,72.68
2023-01-13T16:03:56.496Z,74.12
2023-01-13T16:06:33.359Z,74.72
2023-01-13T16:09:03.586Z,74.71
2023-01-13T16:11:32.223Z,74.57
2023-01-13T16:14:00.561Z,74.52
2023-01-13T16:16:29.824Z,75.42
2023-01-13T16:18:58.072Z,75.67
2023-01-13T16:21:26.886Z,77.18
2023-01-13T16:23:57.169Z,77.16
2023-01-13T16:26:27.216Z,77.67
2023-01-13T16:28:57.367Z,77.76
2023-01-13T16:31:29.202Z,77.18
2023-01-13T16:33:57.752Z,76.48
2023-01-13T16:36:25.787Z,78.01
2023-01-13T16:38:54.820Z,78.36
2023-01-13T16:41:25.720Z,79.40
2023-01-13T16:43:54.707Z,79.21
2023-01-13T16:46:25.830Z,79.37
2023-01-13T16:48:54.791Z,79.60
2023-01-13T16:51:24.376Z,78.90
2023-01-13T16:53:53.019Z,78.84
2023-01-13T16:56:26.662Z,78.88
2023-01-13T16:58:56.881Z,77.91
2023-01-13T17:01:27.252Z,77.58
2023-01-13T17:03:57.037Z,77.72
2023-01-13T17:06:28.437Z,77.06
2023-01-13T17:09:01.441Z,76.92
2023-01-13T17:11:30.956Z,76.83
2023-01-13T17:13:58.938Z,76.31
2023-01-13T17:16:28.155Z,76.62
2023-01-13T17:18:56.637Z,76.73
2023-01-13T17:21:24.829Z,76.45
2023-01-13T17:23:53.003Z,76.01
2023-01-13T17:26:33.473Z,76.23
2023-01-13T17:29:02.449Z,76.81
2023-01-13T17:31:31.211Z,76.61
2023-01-13T17:33:59.689Z,76.40
2023-01-13T17:36:27.659Z,76.68
2023-01-13T17:38:57.412Z,76.33
2023-01-13T17:41:26.704Z,76.77
2023-01-13T17:43:58.906Z,76.33
2023-01-13T17:46:27.166Z,75.49
2023-01-13T17:48:56.184Z,75.43
2023-01-13T17:51:25.049Z,75.15
2023-01-13T17:53:54.682Z,75.43
2023-01-13T17:56:24.711Z,75.55
2023-01-13T17:58:52.961Z,75.72
2023-01-13T18:01:23.559Z,76.24
2023-01-13T18:03:52.130Z,76.49
2023-01-13T18:06:22.535Z,76.54
2023-01-13T18:08:51.446Z,76.60
2023-01-13T18:11:21.207Z,76.54
2023-01-13T18:13:51.467Z,75.62
2023-01-13T18:16:22.614Z,75.29
2023-01-13T18:18:53.362Z,75.14
2023-01-13T18:21:40.882Z,74.74
2023-01-13T18:24:30.241Z,74.62
2023-01-13T18:27:15.511Z,74.82
2023-01-13T18:29:43.912Z,73.83
2023-01-13T18:32:13.799Z,73.68
2023-01-13T18:34:42.434Z,74.38
2023-01-13T18:37:14.127Z,74.27
2023-01-13T18:39:42.589Z,74.19
2023-01-13T18:42:29.668Z,73.93
2023-01-13T18:44:58.631Z,73.71
2023-01-13T18:47:30.778Z,73.88
2023-01-13T18:49:59.297Z,74.07
2023-01-13T18:52:27.805Z,73.63
2023-01-13T18:54:55.767Z,74.56
2023-01-13T18:57:23.668Z,74.65
2023-01-13T18:59:51.880Z,74.36
2023-01-13T19:02:21.849Z,74.43
2023-01-13T19:04:51.279Z,74.20
2023-01-13T19:07:24.404Z,74.07
2023-01-13T19:09:52.581Z,73.08
2023-01-13T19:12:26.059Z,73.31
2023-01-13T19:14:54.394Z,73.30
2023-01-13T19:17:25.100Z,73.26
2023-01-13T19:19:57.361Z,73.80
2023-01-13T19:22:28.503Z,73.81
2023-01-13T19:24:56.954Z,73.74
2023-01-13T19:27:25.848Z,73.70
2023-01-13T19:29:54.141Z,73.73
2023-01-13T19:32:22.906Z,73.29
2023-01-13T19:34:51.419Z,73.38
2023-01-13T19:37:21.560Z,72.93
2023-01-13T19:39:49.483Z,72.83
2023-01-13T19:42:35.055Z,73.45
2023-01-13T19:45:20.546Z,73.48
2023-01-13T19:47:48.576Z,73.87
2023-01-13T19:50:17.377Z,75.28
2023-01-13T19:52:47.376Z,76.65
2023-01-13T19:55:15.500Z,76.52
2023-01-13T19:57:44.235Z,75.77
2023-01-13T20:00:15.327Z,76.30
2023-01-13T20:02:48.728Z,77.01
2023-01-13T20:05:21.378Z,77.07
2023-01-13T20:07:51.429Z,77.39
2023-01-13T20:10:21.000Z,77.74
2023-01-13T20:12:49.147Z,77.47
2023-01-13T20:15:17.917Z,76.22
2023-01-13T20:17:46.003Z,75.95
2023-01-13T20:20:15.874Z,75.72
2023-01-13T20:22:44.370Z,75.83
2023-01-13T20:25:16.947Z,76.12
2023-01-13T20:27:45.607Z,76.45
2023-01-13T20:30:14.918Z,76.25
2023-01-13T20:32:44.311Z,75.16
2023-01-13T20:35:13.000Z,75.59
2023-01-13T20:37:42.975Z,75.74
2023-01-13T20:40:14.904Z,75.60
2023-01-13T20:42:45.110Z,75.28
2023-01-13T20:45:17.614Z,75.45
2023-01-13T20:47:46.419Z,74.81
2023-01-13T20:50:16.193Z,74.85
2023-01-13T20:52:44.668Z,74.74
2023-01-13T20:55:13.485Z,75.90
2023-01-13T20:57:42.088Z,75.99
2023-01-13T21:00:12.770Z,76.61
2023-01-13T21:02:41.928Z,76.29
2023-01-13T21:05:10.369Z,76.43
2023-01-13T21:07:38.586Z,76.89
2023-01-13T21:10:11.468Z,77.18
2023-01-13T21:12:57.234Z,77.16
2023-01-13T21:15:27.494Z,76.93
2023-01-13T21:18:12.967Z,76.65
2023-01-13T21:20:41.346Z,75.73
2023-01-13T21:23:11.290Z,76.26
2023-01-13T21:25:40.550Z,76.36
2023-01-13T21:28:11.475Z,76.10
2023-01-13T21:30:41.677Z,75.94
2023-01-13T21:33:14.668Z,76.57
2023-01-13T21:35:43.001Z,76.99
2023-01-13T21:38:12.095Z,76.97
2023-01-13T21:40:40.801Z,76.85
2023-01-13T21:43:30.472Z,76.80
2023-01-13T21:46:17.554Z,77.69
2023-01-13T21:48:45.517Z,78.20
2023-01-13T21:51:13.506Z,78.67
2023-01-13T21:53:41.817Z,78.54
2023-01-13T21:56:35.137Z,77.86
2023-01-13T21:59:03.127Z,78.28
2023-01-13T22:01:32.552Z,78.63
2023-01-13T22:04:15.747Z,78.46
2023-01-13T22:06:43.671Z,78.39
2023-01-13T22:09:12.748Z,78.06
2023-01-13T22:11:40.971Z,77.91
2023-01-13T22:14:10.057Z,77.56
2023-01-13T22:16:42.195Z,77.01
2023-01-13T22:19:11.124Z,77.02
2023-01-13T22:21:39.757Z,76.82
2023-01-13T22:24:08.453Z,76.97
2023-01-13T22:26:36.509Z,76.99
2023-01-13T22:29:04.881Z,76.41
2023-01-13T22:31:32.992Z,76.47
2023-01-13T22:34:02.481Z,75.83
2023-01-13T22:36:30.531Z,75.13
2023-01-13T22:39:00.471Z,74.83
2023-01-13T22:41:28.558Z,73.80
2023-01-13T22:43:57.844Z,73.98
2023-01-13T22:46:26.872Z,74.37
2023-01-13T22:48:56.515Z,74.35
2023-01-13T22:51:26.927Z,74.33
2023-01-13T22:53:55.625Z,74.54
2023-01-13T22:56:26.089Z,74.41
2023-01-13T22:58:55.052Z,75.25
2023-01-13T23:01:24.309Z,75.35
2023-01-13T23:03:52.962Z,75.50
2023-01-13T23:06:23.928Z,75.93
2023-01-13T23:08:53.931Z,76.52
2023-01-13T23:11:24.827Z,76.31
2023-01-13T23:14:00.413Z,76.57
2023-01-13T23:16:30.382Z,77.02
2023-01-13T23:18:58.643Z,77.13
2023-01-13T23:21:28.232Z,77.27
2023-01-13T23:24:01.391Z,77.24
2023-01-13T23:26:30.891Z,77.58
2023-01-13T23:29:00.580Z,77.18
2023-01-13T23:31:28.600Z,76.75
2023-01-13T23:33:56.706Z,76.78
2023-01-13T23:36:26.306Z,76.91
2023-01-13T23:38:55.170Z,76.75
2023-01-13T23:41:25.843Z,77.12
2023-01-13T23:43:55.144Z,76.48
2023-01-13T23:46:23.473Z,76.27
2023-01-13T23:48:52.391Z,75.92
2023-01-13T23:51:21.791Z,75.84
2023-01-13T23:53:51.093Z,75.47
2023-01-13T23:56:20.701Z,75.18
2023-01-13T23:58:50.553Z,75.35
